Time;durP1;ratioP1;P1;durP2;ratioP2;P2;SDS_P1;SDS_P2;PMS_P1;PMS_P2;Temp;Humidity;BMP_temperature;BMP_pressure;BME280_temperature;BME280_humidity;BME280_pressure;Samples;Min_cycle;Max_cycle;Signal;HPM_P1;HPM_P2
2022/02/03 00:01:52;;;;;;;36.90;20.05;;;;;;;7.93;100.00;101993.34;5092025;28;20525;-46
2022/02/03 00:04:22;;;;;;;37.17;20.08;;;;;;;7.90;100.00;101988.19;5092175;28;20055;-49
2022/02/03 00:06:56;;;;;;;34.90;20.80;;;;;;;7.87;100.00;101998.78;5090996;28;20367;-48
2022/02/03 00:10:00;;;;;;;34.70;21.42;;;;;;;7.89;100.00;102002.19;5087838;28;20059;-48
2022/02/03 00:26:36;;;;;;;40.35;21.85;;;;;;;7.91;100.00;101978.59;5087313;28;20052;-51
2022/02/03 00:29:16;;;;;;;35.90;21.45;;;;;;;7.92;100.00;101970.66;5092307;28;20517;-49
2022/02/03 00:32:00;;;;;;;38.70;22.08;;;;;;;7.89;100.00;101962.06;5092171;28;20062;-46
2022/02/03 00:34:38;;;;;;;35.85;21.80;;;;;;;7.94;100.00;101963.59;5091936;28;20055;-44
2022/02/03 00:37:14;;;;;;;38.80;21.50;;;;;;;7.88;100.00;101969.06;5092015;28;20495;-49
2022/02/03 00:48:22;;;;;;;37.17;22.25;;;;;;;7.93;100.00;101955.78;5091936;28;20060;-50
2022/02/03 00:50:53;;;;;;;36.05;22.35;;;;;;;7.87;100.00;101954.25;5091740;28;20052;-48
2022/02/03 00:53:23;;;;;;;39.08;23.20;;;;;;;7.89;100.00;101949.81;5095482;28;20051;-48
2022/02/03 00:55:54;;;;;;;39.13;22.42;;;;;;;7.90;100.00;101951.53;5096133;28;20056;-48
2022/02/03 00:58:26;;;;;;;38.63;22.08;;;;;;;7.90;100.00;101945.44;5092584;28;20040;-47
2022/02/03 01:00:59;;;;;;;38.47;23.65;;;;;;;7.93;100.00;101937.47;5093036;28;20048;-45
2022/02/03 01:03:31;;;;;;;37.42;22.05;;;;;;;7.91;100.00;101940.13;5095250;28;20044;-49
2022/02/03 01:06:01;;;;;;;42.00;23.88;;;;;;;7.91;100.00;101936.69;5093222;28;20052;-51
2022/02/03 01:08:37;;;;;;;38.47;23.55;;;;;;;7.90;100.00;101927.09;5092219;28;20489;-46
2022/02/03 01:11:14;;;;;;;44.33;25.00;;;;;;;7.88;100.00;101926.28;5095430;28;20052;-47
2022/02/03 01:13:49;;;;;;;39.35;24.35;;;;;;;7.94;100.00;101926.91;5095390;28;20051;-47
2022/02/03 01:16:28;;;;;;;41.08;25.10;;;;;;;7.97;100.00;101927.72;5095357;28;20130;-47
2022/02/03 01:19:37;;;;;;;40.22;24.17;;;;;;;7.99;100.00;101924.16;5093886;28;20052;-49
2022/02/03 01:33:44;;;;;;;43.75;26.70;;;;;;;7.91;100.00;101921.81;5093786;28;20059;-48
2022/02/03 01:47:37;;;;;;;45.97;27.17;;;;;;;7.93;100.00;101925.25;5087621;28;20092;-49
2022/02/03 01:52:57;;;;;;;46.85;27.83;;;;;;;7.99;100.00;101912.78;5094371;28;20681;-50
2022/02/03 01:55:26;;;;;;;48.47;29.58;;;;;;;7.92;100.00;101910.41;5094467;28;20044;-47
2022/02/03 01:58:03;;;;;;;46.85;28.48;;;;;;;7.94;100.00;101913.81;5094438;28;20047;-48
2022/02/03 02:00:38;;;;;;;47.80;28.25;;;;;;;7.94;100.00;101903.34;5094484;28;20051;-46
2022/02/03 02:03:16;;;;;;;48.92;28.90;;;;;;;7.96;100.00;101898.03;5093880;28;20130;-49
2022/02/03 02:06:12;;;;;;;45.22;27.80;;;;;;;7.97;100.00;101889.28;5094328;28;20055;-48
2022/02/03 02:08:55;;;;;;;44.40;27.38;;;;;;;8.01;100.00;101893.50;5060935;28;20052;-49
2022/02/03 02:11:45;;;;;;;44.88;27.98;;;;;;;8.02;100.00;101881.28;5094060;28;20056;-48
2022/02/03 02:14:47;;;;;;;49.25;28.48;;;;;;;7.95;100.00;101881.47;5092776;28;20052;-50
2022/02/03 02:36:49;;;;;;;46.42;27.15;;;;;;;7.97;100.00;101876.19;5083725;28;20129;-47
2022/02/03 02:37:19;;;;;;;48.50;28.65;;;;;;;7.92;100.00;101865.91;5093627;28;20050;-47
2022/02/03 02:40:08;;;;;;;48.63;28.27;;;;;;;7.92;100.00;101870.25;5093585;28;20043;-46
2022/02/03 02:42:45;;;;;;;48.28;28.88;;;;;;;7.94;100.00;101863.22;5093454;28;20055;-44
2022/02/03 02:45:16;;;;;;;50.47;28.88;;;;;;;7.90;100.00;101862.47;5093712;28;20059;-45
2022/02/03 02:47:54;;;;;;;47.97;28.95;;;;;;;7.98;100.00;101858.72;5093625;28;20391;-45
2022/02/03 02:50:36;;;;;;;48.83;27.77;;;;;;;7.94;100.00;101863.22;5093140;28;20139;-46
2022/02/03 02:53:17;;;;;;;50.33;28.73;;;;;;;7.91;100.00;101858.09;5093414;28;20048;-47
2022/02/03 02:56:01;;;;;;;48.35;27.70;;;;;;;8.00;100.00;101862.97;5092913;28;20501;-49
2022/02/03 02:59:07;;;;;;;47.13;28.13;;;;;;;7.91;100.00;101864.19;5092996;28;20063;-49
2022/02/03 03:29:59;;;;;;;39.20;22.30;;;;;;;7.81;100.00;101805.19;5092855;28;20048;-48
2022/02/03 03:32:49;;;;;;;41.88;21.77;;;;;;;7.82;100.00;101795.56;5092656;28;20040;-48
2022/02/03 03:35:33;;;;;;;38.15;21.15;;;;;;;7.87;100.00;101789.25;5091212;28;20056;-47
2022/02/03 03:38:06;;;;;;;38.88;20.48;;;;;;;7.87;100.00;101781.38;5089074;28;20051;-48
2022/02/03 03:40:34;;;;;;;;;;;;;;;7.84;100.00;101776.28;5091793;28;20052;-48
2022/02/03 03:43:06;;;;;;;41.20;20.88;;;;;;;7.85;100.00;101777.97;5092183;28;19965;-47
2022/02/03 03:45:38;;;;;;;38.35;22.25;;;;;;;7.83;100.00;101771.09;5092169;28;20062;-50
2022/02/03 03:48:09;;;;;;;40.55;22.10;;;;;;;7.82;100.00;101758.91;5092548;28;20058;-48
2022/02/03 03:50:40;;;;;;;38.33;22.02;;;;;;;7.82;100.00;101766.78;5092226;28;20054;-45
2022/02/03 03:53:20;;;;;;;38.20;21.83;;;;;;;7.78;100.00;101759.03;5092431;28;20062;-48
2022/02/03 03:55:56;;;;;;;37.47;21.40;;;;;;;7.77;100.00;101759.94;5091327;28;20056;-46
2022/02/03 04:33:53;;;;;;;33.20;19.08;;;;;;;7.74;100.00;101756.59;5096084;28;20498;-45
2022/02/03 04:37:13;;;;;;;35.35;19.75;;;;;;;7.73;100.00;101749.63;5095953;28;20423;-50
2022/02/03 04:57:43;;;;;;;33.72;17.30;;;;;;;7.59;100.00;101722.25;5095314;28;20051;-56
2022/02/03 05:03:34;;;;;;;26.88;15.23;;;;;;;7.60;100.00;101712.63;5089082;28;20063;-51
2022/02/03 05:06:16;;;;;;;24.85;14.50;;;;;;;7.52;100.00;101714.69;5091113;28;20036;-56
2022/02/03 05:09:03;;;;;;;31.77;16.37;;;;;;;7.56;100.00;101716.25;5095541;28;20055;-54
2022/02/03 05:11:54;;;;;;;24.90;14.15;;;;;;;7.49;100.00;101720.88;5095261;28;20040;-53
2022/02/03 05:15:00;;;;;;;27.42;14.60;;;;;;;7.52;100.00;101715.50;5095427;28;20691;-55
2022/02/03 05:21:04;;;;;;;20.10;11.73;;;;;;;7.44;100.00;101723.69;5082071;28;20105;-54
2022/02/03 05:24:06;;;;;;;;;;;;;;;7.45;100.00;101719.28;5092398;28;20043;-54
2022/02/03 05:31:59;;;;;;;23.90;13.30;;;;;;;7.43;100.00;101714.13;5093822;28;20288;-55
2022/02/03 05:42:56;;;;;;;27.35;14.00;;;;;;;7.25;100.00;101701.72;5094734;28;20048;-56
2022/02/03 05:51:44;;;;;;;28.08;14.55;;;;;;;7.26;100.00;101688.56;5148986;27;1280794;-52
2022/02/03 05:54:49;;;;;;;28.13;14.55;;;;;;;7.23;100.00;101682.63;5172039;27;20091;-45
2022/02/03 06:05:48;;;;;;;23.93;14.47;;;;;;;7.25;100.00;101676.41;5168882;27;20078;-44
2022/02/03 06:08:22;;;;;;;23.95;13.35;;;;;;;7.25;100.00;101680.78;5171289;27;20458;-50
2022/02/03 06:13:43;;;;;;;19.35;11.48;;;;;;;7.27;100.00;101658.03;5171831;27;20481;-47
2022/02/03 06:16:34;;;;;;;22.08;12.40;;;;;;;7.23;100.00;101659.91;5170331;27;20464;-46
2022/02/03 06:21:55;;;;;;;20.35;11.63;;;;;;;7.20;100.00;101651.31;5171516;27;20047;-49
2022/02/03 06:24:35;;;;;;;20.50;11.70;;;;;;;7.20;100.00;101651.31;5168236;27;20362;-45
2022/02/03 06:29:52;;;;;;;20.25;10.30;;;;;;;7.14;100.00;101649.78;5170814;27;20497;-44
2022/02/03 06:32:21;;;;;;;21.17;10.05;;;;;;;7.16;100.00;101645.38;5171535;27;20141;-47
2022/02/03 06:34:49;;;;;;;19.45;10.32;;;;;;;7.13;100.00;101640.25;5171357;27;20396;-49
2022/02/03 06:37:20;;;;;;;19.40;9.18;;;;;;;7.15;100.00;101633.19;5171303;27;20057;-46
2022/02/03 06:39:51;;;;;;;15.57;8.50;;;;;;;7.13;100.00;101627.19;5171405;27;20523;-45
2022/02/03 06:42:19;;;;;;;15.23;7.78;;;;;;;7.09;100.00;101623.81;5170681;27;20039;-46
2022/02/03 06:44:51;;;;;;;14.65;7.85;;;;;;;7.09;100.00;101630.81;5167482;27;20087;-48
2022/02/03 06:47:27;;;;;;;16.75;8.13;;;;;;;7.13;100.00;101634.16;5168813;27;20411;-46
2022/02/03 06:50:01;;;;;;;17.20;7.78;;;;;;;7.15;100.00;101627.13;5170888;27;20536;-48
2022/02/03 06:52:44;;;;;;;15.30;7.20;;;;;;;7.13;100.00;101634.16;5171123;27;20396;-46
2022/02/03 06:55:18;;;;;;;13.45;6.97;;;;;;;7.14;100.00;101623.63;5171043;27;20050;-47
2022/02/03 06:57:52;;;;;;;14.88;6.40;;;;;;;7.10;100.00;101624.66;5169155;27;20050;-45
2022/02/03 07:00:24;;;;;;;18.20;6.07;;;;;;;7.07;100.00;101615.16;5167319;27;20054;-54
2022/02/03 07:02:55;;;;;;;11.93;4.88;;;;;;;7.01;100.00;101609.31;5155724;27;20035;-55
2022/02/03 07:05:23;;;;;;;12.27;4.90;;;;;;;7.02;100.00;101611.91;5156919;27;20048;-55
2022/02/03 07:07:52;;;;;;;13.07;5.00;;;;;;;7.03;100.00;101610.13;5156860;27;20061;-55
2022/02/03 07:10:22;;;;;;;10.85;4.53;;;;;;;7.04;100.00;101604.81;5156708;27;20039;-56
2022/02/03 07:12:50;;;;;;;9.57;3.83;;;;;;;7.05;100.00;101603.91;5156757;27;20374;-55
2022/02/03 07:15:19;;;;;;;8.73;3.97;;;;;;;7.02;100.00;101598.81;5156900;27;20046;-56
2022/02/03 07:17:47;;;;;;;14.93;4.72;;;;;;;7.00;100.00;101597.16;5155954;27;20089;-55
2022/02/03 07:20:15;;;;;;;11.18;3.65;;;;;;;7.00;100.00;101590.16;5152787;27;20092;-54
2022/02/03 07:22:43;;;;;;;10.70;3.50;;;;;;;7.01;100.00;101588.38;5154168;27;20065;-55
2022/02/03 07:25:12;;;;;;;9.30;3.65;;;;;;;6.96;100.00;101595.56;5156515;27;20660;-54
2022/02/03 07:27:43;;;;;;;10.02;3.83;;;;;;;6.96;100.00;101592.97;5153939;27;20087;-55
2022/02/03 07:30:12;;;;;;;11.05;4.47;;;;;;;7.00;100.00;101582.31;5152566;27;20043;-54
2022/02/03 07:32:41;;;;;;;9.10;3.80;;;;;;;6.91;100.00;101582.66;5156394;27;20524;-55
2022/02/03 07:35:11;;;;;;;10.32;4.03;;;;;;;6.97;100.00;101582.44;5155024;27;20043;-55
2022/02/03 07:37:43;;;;;;;9.82;4.00;;;;;;;7.03;100.00;101586.56;5152667;27;20959;-56
2022/02/03 07:40:12;;;;;;;11.00;4.35;;;;;;;7.00;100.00;101573.63;5154697;27;20074;-55
2022/02/03 07:42:44;;;;;;;13.35;4.72;;;;;;;6.93;100.00;101576.47;5155461;27;20091;-55
2022/02/03 07:45:12;;;;;;;;;;;;;;;6.89;100.00;101567.03;5155609;27;20139;-54
2022/02/03 07:47:43;;;;;;;14.90;5.38;;;;;;;6.91;100.00;101566.97;5134059;27;19959;-56
2022/02/03 07:50:12;;;;;;;11.30;5.15;;;;;;;6.90;100.00;101560.91;5153254;27;20381;-55
2022/02/03 07:52:40;;;;;;;15.00;5.82;;;;;;;6.93;100.00;101567.78;5155937;27;20076;-55
2022/02/03 07:55:08;;;;;;;12.45;5.50;;;;;;;6.94;100.00;101566.88;5155977;27;20047;-55
2022/02/03 07:57:45;;;;;;;14.73;5.50;;;;;;;7.00;100.00;101571.84;5155747;27;20130;-54
2022/02/03 08:00:14;;;;;;;11.85;5.90;;;;;;;7.01;100.00;101570.06;5153448;27;20430;-57
2022/02/03 08:03:05;;;;;;;11.00;5.43;;;;;;;7.00;100.00;101561.38;5154353;27;20382;-55
2022/02/03 08:05:35;;;;;;;14.18;6.22;;;;;;;6.99;100.00;101566.69;5155405;27;20053;-56
2022/02/03 08:08:07;;;;;;;12.55;6.07;;;;;;;6.98;100.00;101564.97;5155457;27;20047;-55
2022/02/03 08:10:40;;;;;;;12.13;5.63;;;;;;;7.03;100.00;101561.25;5143532;27;20043;-55
2022/02/03 08:13:15;;;;;;;16.55;6.72;;;;;;;7.04;100.00;101567.38;5133795;27;20501;-55
2022/02/03 08:15:44;;;;;;;13.48;6.22;;;;;;;6.98;100.00;101572.81;5134863;27;20133;-56
2022/02/03 08:18:17;;;;;;;17.23;7.15;;;;;;;6.91;100.00;101573.06;5134607;27;20078;-54
2022/02/03 08:20:51;;;;;;;15.23;6.32;;;;;;;6.94;100.00;101578.16;5135397;27;20122;-56
2022/02/03 08:26:13;;;;;;;15.82;5.85;;;;;;;7.00;100.00;101568.41;5137894;27;20057;-54
2022/02/03 08:29:08;;;;;;;13.95;6.10;;;;;;;6.99;100.00;101551.00;5133896;27;20090;-56
2022/02/03 08:31:41;;;;;;;13.80;5.72;;;;;;;7.02;100.00;101556.09;5137375;27;20121;-54
2022/02/03 08:34:15;;;;;;;14.68;6.38;;;;;;;7.06;100.00;101555.06;5135123;27;20437;-53
2022/02/03 08:36:43;;;;;;;11.50;6.20;;;;;;;7.00;100.00;101550.94;5151717;27;20042;-52
2022/02/03 08:39:12;;;;;;;14.32;5.65;;;;;;;7.05;100.00;101553.38;5150155;27;20055;-55
2022/02/03 08:41:40;;;;;;;15.55;6.82;;;;;;;7.01;100.00;101554.38;5150004;27;20050;-55
2022/02/03 08:44:09;;;;;;;13.95;7.18;;;;;;;7.00;100.00;101545.69;5134332;27;20043;-55
2022/02/03 08:46:37;;;;;;;13.80;6.05;;;;;;;7.02;100.00;101543.88;5115592;27;20054;-55
2022/02/03 08:49:07;;;;;;;14.95;6.30;;;;;;;7.03;100.00;101544.72;5133959;27;20047;-53
2022/02/03 08:51:35;;;;;;;12.80;6.57;;;;;;;7.01;100.00;101547.41;5133784;27;20043;-55
2022/02/03 08:54:08;;;;;;;13.50;6.35;;;;;;;7.04;100.00;101549.06;5115599;27;20047;-55
2022/02/03 08:56:44;;;;;;;16.08;7.28;;;;;;;7.01;100.00;101543.91;5134025;27;20047;-52
2022/02/03 08:59:35;;;;;;;15.52;6.65;;;;;;;7.05;100.00;101546.38;5134283;27;20126;-56
2022/02/03 09:35:49;;;;;;;12.77;5.82;;;;;;;7.04;100.00;101518.50;5130957;27;20043;-54
2022/02/03 09:38:40;;;;;;;11.50;6.20;;;;;;;7.14;100.00;101526.84;5133190;27;21746;-55
2022/02/03 09:41:40;;;;;;;13.63;5.63;;;;;;;7.12;100.00;101520.81;5133371;27;20031;-56
2022/02/03 09:50:30;;;;;;;13.27;6.10;;;;;;;7.20;100.00;101530.97;5153539;27;20050;-57
2022/02/03 09:53:20;;;;;;;10.85;5.82;;;;;;;7.20;100.00;101526.59;5153817;27;20045;-56
2022/02/03 09:56:06;;;;;;;13.90;6.00;;;;;;;7.27;100.00;101519.38;5150555;27;20103;-55
2022/02/03 09:58:41;;;;;;;13.48;6.45;;;;;;;7.31;100.00;101514.84;5151041;27;20053;-54
2022/02/03 10:01:13;;;;;;;12.63;6.43;;;;;;;7.31;100.00;101513.09;5153565;27;20377;-55
2022/02/03 10:03:50;;;;;;;14.65;5.93;;;;;;;7.34;100.00;101499.88;5153885;27;20050;-55
2022/02/03 10:06:25;;;;;;;13.60;6.47;;;;;;;7.36;100.00;101500.69;5154012;27;20485;-55
2022/02/03 10:08:55;;;;;;;13.90;6.28;;;;;;;7.32;100.00;101491.25;5135126;27;20062;-53
2022/02/03 10:11:24;;;;;;;11.48;6.00;;;;;;;7.30;100.00;101489.59;5151860;27;20058;-55
2022/02/03 10:13:54;;;;;;;11.50;6.47;;;;;;;7.30;100.00;101494.84;5149604;27;20931;-54
2022/02/03 10:16:27;;;;;;;11.98;5.75;;;;;;;7.31;100.00;101500.00;5152177;27;20050;-57
2022/02/03 10:19:04;;;;;;;11.80;5.90;;;;;;;7.28;100.00;101506.22;5153411;27;20128;-56
2022/02/03 10:21:34;;;;;;;13.57;6.18;;;;;;;7.24;100.00;101509.88;5153615;27;20068;-55
2022/02/03 10:24:05;;;;;;;18.00;7.13;;;;;;;7.15;100.00;101512.84;5132337;27;20047;-56
2022/02/03 10:26:36;;;;;;;11.40;5.25;;;;;;;7.23;100.00;101521.25;5150012;27;20050;-53
2022/02/03 10:29:06;;;;;;;11.98;5.95;;;;;;;7.13;100.00;101522.53;5152515;27;20731;-57
2022/02/03 10:31:38;;;;;;;13.65;5.70;;;;;;;7.13;100.00;101514.69;5149922;27;20043;-54
2022/02/03 10:34:15;;;;;;;10.55;5.22;;;;;;;7.18;100.00;101511.88;5150882;27;20047;-55
2022/02/03 10:36:55;;;;;;;12.60;5.72;;;;;;;7.14;100.00;101515.53;5155330;27;20072;-56
2022/02/03 10:39:55;;;;;;;15.25;6.90;;;;;;;7.11;100.00;101513.88;5139073;27;20061;-56
2022/02/03 10:42:33;;;;;;;13.80;6.25;;;;;;;7.19;100.00;101511.81;5157133;27;20530;-55
2022/02/03 10:45:15;;;;;;;13.55;5.40;;;;;;;7.18;100.00;101507.50;5156779;27;20050;-55
2022/02/03 10:50:49;;;;;;;13.50;5.22;;;;;;;7.17;100.00;101490.13;5156979;27;20483;-56
2022/02/03 10:53:37;;;;;;;13.13;5.78;;;;;;;7.20;100.00;101489.97;5157022;27;20038;-55
2022/02/03 10:56:21;;;;;;;14.57;6.20;;;;;;;7.19;100.00;101477.81;5157188;27;20076;-55
2022/02/03 10:59:09;;;;;;;13.57;6.45;;;;;;;7.23;100.00;101479.38;5157068;27;20043;-56
2022/02/03 11:07:28;;;;;;;15.75;8.63;;;;;;;7.24;100.00;101470.63;5156494;27;20039;-55
2022/02/03 11:10:05;;;;;;;13.00;6.28;;;;;;;7.29;100.00;101459.97;5156467;27;20061;-55
2022/02/03 11:12:51;;;;;;;10.32;5.75;;;;;;;7.39;100.00;101456.06;5156519;27;20037;-55
2022/02/03 11:15:21;;;;;;;14.57;5.90;;;;;;;7.53;100.00;101447.63;5156925;27;20130;-55
2022/02/03 11:17:50;;;;;;;16.05;6.45;;;;;;;7.54;100.00;101451.94;5156665;27;20050;-55
2022/02/03 11:20:20;;;;;;;14.95;6.45;;;;;;;7.59;100.00;101436.91;5156719;27;20053;-56
2022/02/03 11:22:55;;;;;;;13.98;5.85;;;;;;;7.61;100.00;101442.06;5156560;27;20050;-55
2022/02/03 11:25:39;;;;;;;13.60;6.90;;;;;;;7.60;100.00;101435.94;5156576;27;20038;-55
2022/02/03 11:28:27;;;;;;;13.98;7.32;;;;;;;7.59;100.00;101430.78;5156633;27;20039;-55
2022/02/03 11:42:42;;;;;;;13.23;6.50;;;;;;;7.72;100.00;101404.94;5156319;27;20039;-56
2022/02/03 11:48:27;;;;;;;18.73;6.95;;;;;;;7.62;99.76;101396.63;5139507;27;19919;-55
2022/02/03 11:57:12;;;;;;;;;;;;;;;7.67;99.10;101378.09;5153059;27;20043;-56
2022/02/03 12:03:07;;;;;;;11.77;6.85;;;;;;;7.73;99.52;101367.34;5155843;27;20605;-55
2022/02/03 12:11:41;;;;;;;13.90;6.95;;;;;;;7.66;99.66;101371.16;5153790;27;20130;-55
2022/02/03 12:20:16;;;;;;;13.98;7.18;;;;;;;7.74;98.88;101351.59;5151000;27;20084;-54
2022/02/03 12:23:04;;;;;;;19.35;7.40;;;;;;;7.72;99.41;101344.72;5152404;27;20111;-55
2022/02/03 12:25:50;;;;;;;16.17;7.00;;;;;;;7.81;99.38;101336.41;5155296;27;20047;-56
2022/02/03 12:28:34;;;;;;;14.27;7.20;;;;;;;7.80;98.27;101337.38;5152429;27;20043;-56
2022/02/03 12:31:40;;;;;;;15.02;6.35;;;;;;;7.84;97.88;101327.56;5152304;27;20054;-55
2022/02/03 12:37:14;;;;;;;15.15;6.28;;;;;;;7.90;97.97;101322.06;5155145;27;20054;-55
2022/02/03 12:39:56;;;;;;;16.48;6.35;;;;;;;7.85;97.30;101318.81;5155125;27;20054;-55
2022/02/03 12:45:16;;;;;;;13.70;6.37;;;;;;;7.92;97.55;101315.84;5151405;27;20050;-55
2022/02/03 12:47:51;;;;;;;11.23;5.85;;;;;;;7.90;97.25;101312.44;5154980;27;20443;-56
2022/02/03 12:50:24;;;;;;;11.38;5.65;;;;;;;7.80;96.17;101308.56;5154573;27;20054;-56
2022/02/03 12:52:54;;;;;;;12.40;5.18;;;;;;;7.86;96.46;101310.03;5154758;27;20051;-54
2022/02/03 12:55:26;;;;;;;12.70;6.18;;;;;;;7.81;96.74;101305.00;5154780;27;20549;-54
2022/02/03 12:57:56;;;;;;;10.50;5.55;;;;;;;7.83;97.41;101305.78;5153658;27;20043;-55
2022/02/03 13:00:32;;;;;;;13.05;5.80;;;;;;;7.82;97.54;101313.72;5150813;27;20042;-56
2022/02/03 13:03:20;;;;;;;11.48;5.75;;;;;;;7.79;98.21;101317.31;5153709;27;20069;-54
2022/02/03 13:05:55;;;;;;;13.13;5.63;;;;;;;7.85;98.90;101303.09;5154500;27;20048;-56
2022/02/03 13:08:33;;;;;;;11.40;5.47;;;;;;;7.74;100.00;101298.34;5154536;27;20062;-57
2022/02/03 13:11:14;;;;;;;10.98;5.80;;;;;;;7.64;100.00;101299.72;5152112;27;20043;-56
2022/02/03 13:13:55;;;;;;;15.13;5.85;;;;;;;7.65;100.00;101296.16;5151475;27;20046;-54
2022/02/03 13:16:23;;;;;;;14.13;5.72;;;;;;;7.73;100.00;101291.41;5154180;27;20054;-57
2022/02/03 13:19:03;;;;;;;14.25;6.20;;;;;;;7.84;100.00;101302.25;5152883;27;20091;-57
2022/02/03 13:21:47;;;;;;;13.60;5.78;;;;;;;7.86;100.00;101296.94;5151275;27;20369;-55
2022/02/03 13:27:17;;;;;;;13.10;5.53;;;;;;;7.77;100.00;101285.97;5090347;28;20109;-57
2022/02/03 13:29:57;;;;;;;12.60;5.80;;;;;;;7.81;100.00;101281.44;5140176;27;20066;-56
2022/02/03 13:32:32;;;;;;;10.70;5.43;;;;;;;7.77;100.00;101282.50;5150854;27;20066;-56
2022/02/03 13:35:06;;;;;;;14.52;6.45;;;;;;;7.83;100.00;101291.84;5135077;27;20053;-56
2022/02/03 13:37:40;;;;;;;13.13;5.80;;;;;;;7.77;100.00;101285.09;5153355;27;20066;-58
2022/02/03 13:40:18;;;;;;;10.98;5.70;;;;;;;7.82;100.00;101283.13;5149004;27;20447;-55
2022/02/03 13:42:48;;;;;;;13.90;5.75;;;;;;;7.87;100.00;101282.94;5151876;27;20073;-54
2022/02/03 13:45:18;;;;;;;11.38;5.30;;;;;;;7.84;100.00;101280.44;5150606;27;20038;-55
2022/02/03 13:47:48;;;;;;;10.85;5.00;;;;;;;7.77;100.00;101290.34;5151189;27;20541;-55
2022/02/03 13:50:22;;;;;;;11.60;4.85;;;;;;;7.79;100.00;101283.28;5153538;27;20054;-54
2022/02/03 13:52:58;;;;;;;11.55;4.82;;;;;;;7.73;100.00;101278.31;5153865;27;20042;-53
2022/02/03 14:15:36;;;;;;;12.63;5.78;;;;;;;7.45;100.00;101264.72;5157746;27;20034;-53
2022/02/03 14:18:13;;;;;;;12.90;5.82;;;;;;;7.42;100.00;101257.03;5136524;27;20077;-54
2022/02/03 14:20:44;;;;;;;11.05;5.57;;;;;;;7.52;100.00;101249.59;5134702;27;20074;-55
2022/02/03 14:28:49;;;;;;;13.63;6.30;;;;;;;7.28;100.00;101257.66;5157556;27;20053;-56
2022/02/03 14:31:17;;;;;;;11.65;6.55;;;;;;;7.16;100.00;101249.47;5157633;27;20066;-54
2022/02/03 14:33:46;;;;;;;13.75;6.35;;;;;;;7.17;100.00;101253.81;5157483;27;20091;-57
2022/02/03 14:36:17;;;;;;;13.13;6.97;;;;;;;7.21;100.00;101248.38;5157362;27;20046;-56
2022/02/03 14:38:53;;;;;;;14.30;6.75;;;;;;;7.21;100.00;101248.38;5157600;27;20050;-55
2022/02/03 14:41:29;;;;;;;11.23;6.60;;;;;;;7.18;100.00;101245.88;5154525;27;20042;-48
2022/02/03 14:43:59;;;;;;;15.90;7.00;;;;;;;7.17;100.00;101236.34;5153690;27;20113;-48
2022/02/03 14:46:29;;;;;;;14.67;7.27;;;;;;;7.14;100.00;101231.25;5157687;27;20042;-50
2022/02/03 14:48:57;;;;;;;15.55;6.70;;;;;;;7.17;100.00;101233.75;5155132;27;20047;-47
2022/02/03 14:51:28;;;;;;;15.10;7.63;;;;;;;7.17;100.00;101228.50;5153209;27;20054;-46
2022/02/03 14:54:19;;;;;;;14.60;7.43;;;;;;;7.11;100.00;101223.53;5155857;27;20400;-44
2022/02/03 14:59:32;;;;;;;18.02;7.68;;;;;;;7.07;100.00;101228.03;5157030;27;20121;-44
2022/02/03 15:02:06;;;;;;;13.60;7.60;;;;;;;7.10;100.00;101216.59;5156953;27;20072;-54
2022/02/03 15:04:34;;;;;;;19.58;8.18;;;;;;;7.00;100.00;101212.72;5156809;27;20465;-54
2022/02/03 15:07:04;;;;;;;14.32;8.25;;;;;;;6.96;100.00;101213.75;5156989;27;20121;-55
2022/02/03 15:12:40;;;;;;;14.30;7.82;;;;;;;6.96;100.00;101212.00;5156803;27;20039;-56
2022/02/03 15:15:09;;;;;;;15.68;7.72;;;;;;;6.92;100.00;101202.59;5138217;27;20049;-57
2022/02/03 15:17:38;;;;;;;13.18;7.60;;;;;;;6.83;100.00;101203.84;5156931;27;20038;-56
2022/02/03 15:20:07;;;;;;;15.70;7.35;;;;;;;6.87;100.00;101215.88;5156628;27;20069;-55
2022/02/03 15:22:35;;;;;;;13.32;7.20;;;;;;;6.90;100.00;101200.03;5155508;27;20548;-55
2022/02/03 15:25:04;;;;;;;15.27;7.55;;;;;;;6.93;100.00;101205.13;5137403;27;20031;-56
2022/02/03 15:27:34;;;;;;;15.75;7.90;;;;;;;6.98;100.00;101209.31;5156164;27;20039;-55
2022/02/03 15:30:03;;;;;;;15.15;7.60;;;;;;;6.94;100.00;101203.38;5156509;27;20086;-56
2022/02/03 15:32:38;;;;;;;16.02;7.90;;;;;;;6.79;100.00;101196.19;5155047;27;20038;-55
2022/02/03 15:35:09;;;;;;;12.65;6.78;;;;;;;6.84;100.00;101189.84;5151964;27;20038;-54
2022/02/03 15:37:38;;;;;;;12.60;7.55;;;;;;;6.82;100.00;101189.06;5155097;27;20045;-56
2022/02/03 15:40:15;;;;;;;13.40;6.72;;;;;;;6.82;100.00;101190.84;5156084;27;20095;-56
2022/02/03 15:42:53;;;;;;;15.48;7.07;;;;;;;6.77;100.00;101184.03;5152656;27;20489;-55
2022/02/03 15:45:21;;;;;;;13.75;7.28;;;;;;;6.72;100.00;101178.16;5154161;27;20050;-53
2022/02/03 15:47:53;;;;;;;15.25;7.32;;;;;;;6.72;100.00;101179.91;5156099;27;20039;-55
2022/02/03 16:18:30;;;;;;;13.13;8.25;;;;;;;6.68;100.00;101178.34;5155213;27;20492;-55
2022/02/03 16:21:04;;;;;;;18.17;7.93;;;;;;;6.66;100.00;101175.81;5155425;27;20043;-53
2022/02/03 16:23:57;;;;;;;15.30;8.60;;;;;;;6.67;100.00;101181.91;5155165;27;20443;-54
2022/02/03 16:26:45;;;;;;;13.70;8.73;;;;;;;6.65;100.00;101178.50;5155516;27;20522;-53
2022/02/03 16:51:31;;;;;;;16.60;9.63;;;;;;;6.58;100.00;101181.34;5151362;27;20054;-54
2022/02/03 16:54:01;;;;;;;18.33;10.68;;;;;;;6.59;100.00;101177.84;5151876;27;20401;-54
2022/02/03 16:56:29;;;;;;;18.58;10.73;;;;;;;6.62;100.00;101176.84;5154745;27;20042;-53
2022/02/03 16:58:58;;;;;;;20.17;10.45;;;;;;;6.58;100.00;101170.06;5154600;27;20066;-53
2022/02/03 17:01:26;;;;;;;18.58;10.65;;;;;;;6.58;100.00;101175.28;5154753;27;20121;-53
2022/02/03 17:03:56;;;;;;;19.88;11.43;;;;;;;6.54;100.00;101169.34;5134983;27;20053;-54
2022/02/03 17:06:24;;;;;;;18.67;10.82;;;;;;;6.58;100.00;101173.53;5150102;27;20050;-55
2022/02/03 17:08:53;;;;;;;17.58;11.20;;;;;;;6.63;100.00;101172.50;5152582;27;20043;-55
2022/02/03 17:11:21;;;;;;;21.45;11.88;;;;;;;6.58;100.00;101173.53;5154576;27;20050;-55
2022/02/03 17:13:49;;;;;;;20.30;10.95;;;;;;;6.58;100.00;101178.75;5154449;27;20046;-54
2022/02/03 17:16:23;;;;;;;19.77;12.27;;;;;;;6.54;100.00;101179.78;5154338;27;20047;-53
2022/02/03 17:18:52;;;;;;;20.30;11.63;;;;;;;6.47;100.00;101178.38;5154433;27;20050;-55
2022/02/03 17:21:27;;;;;;;19.92;12.10;;;;;;;6.46;100.00;101175.81;5154534;27;20046;-54
2022/02/03 17:23:55;;;;;;;20.05;11.77;;;;;;;6.46;100.00;101173.22;5149523;27;20505;-55
2022/02/03 17:26:29;;;;;;;20.20;11.95;;;;;;;6.53;100.00;101170.28;5149654;27;20042;-54
2022/02/03 17:29:05;;;;;;;20.52;12.80;;;;;;;6.47;100.00;101170.53;5154068;27;20389;-53
2022/02/03 17:31:49;;;;;;;23.83;13.52;;;;;;;6.47;100.00;101173.13;5153739;27;20057;-55
2022/02/03 18:10:50;;;;;;;27.98;15.63;;;;;;;6.43;100.00;101180.28;5153893;27;20049;-55
2022/02/03 18:30:30;;;;;;;28.10;17.08;;;;;;;6.44;100.00;101175.88;5153663;27;20055;-55
2022/02/03 18:33:44;;;;;;;26.33;15.93;;;;;;;6.50;100.00;101169.53;5153421;27;20038;-53
2022/02/03 18:36:27;;;;;;;29.33;16.50;;;;;;;6.46;100.00;101168.81;5153486;27;20050;-55
2022/02/03 18:52:55;;;;;;;32.38;16.85;;;;;;;6.39;100.00;101180.44;5145186;27;20437;-55
2022/02/03 18:55:29;;;;;;;29.55;18.00;;;;;;;6.41;100.00;101183.88;5150252;27;20524;-53
2022/02/03 18:58:06;;;;;;;30.75;17.35;;;;;;;6.45;100.00;101180.22;5134835;27;20050;-54
2022/02/03 19:00:54;;;;;;;32.13;19.00;;;;;;;6.43;100.00;101182.03;5136201;27;20067;-56
2022/02/03 20:04:47;;;;;;;30.85;18.35;;;;;;;6.41;100.00;101173.41;5106775;27;20505;-53
2022/02/03 20:07:22;;;;;;;33.88;18.67;;;;;;;6.44;100.00;101173.28;5130815;27;20424;-53
2022/02/03 20:12:32;;;;;;;30.40;18.13;;;;;;;6.43;100.00;101177.66;5132486;27;20424;-53
2022/02/03 20:15:01;;;;;;;31.35;18.50;;;;;;;6.39;100.00;101175.22;5135184;27;20074;-56
2022/02/03 20:17:29;;;;;;;32.30;19.50;;;;;;;6.41;100.00;101178.66;5134785;27;20043;-57